createdAt,value
2018-07-03T00:00:31.083Z,7.75
2018-07-03T00:01:33.957Z,7.75
2018-07-03T00:02:36.873Z,10.00
2018-07-03T00:03:39.683Z,7.75
2018-07-03T00:04:43.402Z,9.00
2018-07-03T00:05:46.979Z,6.00
2018-07-03T00:06:51.323Z,7.75
2018-07-03T00:07:55.255Z,7.25
2018-07-03T00:08:58.506Z,6.00
2018-07-03T00:10:01.339Z,6.50
2018-07-03T00:11:04.124Z,6.00
2018-07-03T00:12:06.899Z,6.50
2018-07-03T00:13:10.564Z,6.00
2018-07-03T00:14:13.362Z,6.50
2018-07-03T00:15:16.299Z,6.00
2018-07-03T00:16:23.945Z,6.00
2018-07-03T00:17:26.779Z,6.25
2018-07-03T00:18:29.603Z,7.00
2018-07-03T00:19:32.773Z,6.00
2018-07-03T00:20:35.605Z,5.25
2018-07-03T00:21:38.464Z,6.00
2018-07-03T00:22:41.289Z,6.25
2018-07-03T00:23:44.081Z,6.00
2018-07-03T00:24:47.269Z,5.75
2018-07-03T00:25:50.448Z,6.00
2018-07-03T00:26:53.242Z,6.00
2018-07-03T00:27:56.044Z,6.00
2018-07-03T00:28:58.800Z,6.00
2018-07-03T00:30:01.591Z,7.00
2018-07-03T00:31:04.397Z,7.00
2018-07-03T00:32:07.701Z,7.50
2018-07-03T00:33:10.463Z,6.00
2018-07-03T00:34:13.272Z,6.50
2018-07-03T00:35:16.067Z,6.00
2018-07-03T00:36:18.898Z,6.25
2018-07-03T00:37:21.683Z,6.00
2018-07-03T00:38:25.011Z,6.50
2018-07-03T00:39:28.828Z,6.00
2018-07-03T00:40:31.770Z,6.00
2018-07-03T00:41:35.060Z,5.00
2018-07-03T00:42:37.826Z,5.00
2018-07-03T00:43:41.601Z,6.00
2018-07-03T00:44:45.815Z,5.00
2018-07-03T00:45:48.633Z,5.25
2018-07-03T00:46:51.445Z,5.50
2018-07-03T00:47:54.276Z,5.25
2018-07-03T00:48:56.994Z,5.00
2018-07-03T00:49:59.850Z,5.00
2018-07-03T00:51:03.272Z,5.00
2018-07-03T00:52:06.101Z,5.00
2018-07-03T00:53:08.902Z,5.00
2018-07-03T00:54:11.655Z,3.75
2018-07-03T00:55:14.464Z,5.00
2018-07-03T00:56:17.279Z,4.75
2018-07-03T00:57:20.650Z,4.25
2018-07-03T00:58:23.397Z,3.75
2018-07-03T00:59:26.272Z,3.75
2018-07-03T01:00:29.041Z,5.00
2018-07-03T01:01:31.820Z,3.75
2018-07-03T01:02:34.583Z,4.00
2018-07-03T01:03:37.769Z,5.00
2018-07-03T01:04:40.507Z,4.00
2018-07-03T01:05:43.233Z,3.75
2018-07-03T01:06:45.991Z,3.75
2018-07-03T01:07:48.734Z,3.75
2018-07-03T01:08:51.480Z,3.75
2018-07-03T01:09:54.606Z,3.75
2018-07-03T01:10:57.432Z,3.75
2018-07-03T01:12:03.976Z,4.75
2018-07-03T01:13:09.686Z,4.25
2018-07-03T01:14:15.198Z,4.00
2018-07-03T01:15:19.759Z,5.00
2018-07-03T01:16:25.700Z,5.75
2018-07-03T01:17:29.463Z,5.25
2018-07-03T01:18:32.316Z,4.00
2018-07-03T01:19:35.747Z,4.00
2018-07-03T01:20:38.575Z,5.00
2018-07-03T01:21:41.365Z,4.00
2018-07-03T01:22:44.700Z,4.00
2018-07-03T01:23:47.496Z,4.00
2018-07-03T01:24:52.683Z,4.75
2018-07-03T01:25:55.448Z,4.00
2018-07-03T01:26:58.250Z,3.50
2018-07-03T01:28:01.058Z,4.00
2018-07-03T01:29:06.736Z,4.00
2018-07-03T01:30:09.516Z,4.00
2018-07-03T01:31:12.310Z,4.25
2018-07-03T01:32:15.088Z,5.00
2018-07-03T01:33:17.908Z,4.50
2018-07-03T01:34:20.691Z,3.50
2018-07-03T01:35:23.833Z,4.00
2018-07-03T01:36:27.569Z,4.00
2018-07-03T01:37:30.350Z,4.00
2018-07-03T01:38:33.124Z,3.00
2018-07-03T01:39:35.921Z,3.50
2018-07-03T01:40:38.732Z,5.00
2018-07-03T01:41:41.902Z,5.00
2018-07-03T01:42:44.676Z,5.00
2018-07-03T01:43:47.465Z,6.00
2018-07-03T01:44:50.280Z,5.25
2018-07-03T01:45:53.104Z,5.00
2018-07-03T01:46:55.963Z,5.00
2018-07-03T01:48:00.024Z,4.00
2018-07-03T01:49:02.852Z,4.00
2018-07-03T01:50:05.690Z,4.00
2018-07-03T01:51:08.508Z,4.00
2018-07-03T01:52:11.259Z,3.00
2018-07-03T01:53:14.047Z,4.50
2018-07-03T01:54:18.354Z,4.00
2018-07-03T01:55:21.121Z,5.00
2018-07-03T01:56:23.909Z,4.75
2018-07-03T01:58:38.573Z,4.75
2018-07-03T01:59:41.813Z,5.25
2018-07-03T02:00:44.937Z,6.00
2018-07-03T02:01:47.758Z,6.00
2018-07-03T02:02:50.538Z,4.00
2018-07-03T02:03:53.953Z,5.25
2018-07-03T02:04:57.015Z,4.00
2018-07-03T02:05:59.800Z,4.50
2018-07-03T02:07:03.797Z,4.25
2018-07-03T02:08:07.425Z,4.25
2018-07-03T02:09:11.705Z,4.25
2018-07-03T02:10:14.484Z,4.00
2018-07-03T02:11:17.292Z,4.00
2018-07-03T02:12:20.067Z,4.00
2018-07-03T02:13:23.261Z,2.00
2018-07-03T02:14:26.031Z,2.50
2018-07-03T02:15:28.835Z,3.00
2018-07-03T02:16:31.618Z,4.00
2018-07-03T02:17:34.431Z,4.00
2018-07-03T02:18:37.396Z,3.00
2018-07-03T02:19:40.764Z,4.00
2018-07-03T02:20:44.182Z,4.00
2018-07-03T02:21:46.993Z,4.00
2018-07-03T02:22:50.444Z,3.00
2018-07-03T02:23:53.246Z,2.00
2018-07-03T02:24:56.130Z,4.00
2018-07-03T02:25:59.480Z,4.00
2018-07-03T02:27:02.284Z,4.00
2018-07-03T02:28:05.053Z,4.50
2018-07-03T02:29:07.809Z,4.00
2018-07-03T02:30:10.654Z,4.00
2018-07-03T02:31:13.920Z,2.00
2018-07-03T02:32:17.050Z,3.50
2018-07-03T02:33:19.854Z,4.00
2018-07-03T02:34:22.614Z,1.50
2018-07-03T02:35:25.478Z,2.00
2018-07-03T02:36:28.259Z,2.00
2018-07-03T02:37:31.051Z,2.00
2018-07-03T02:38:34.300Z,2.50
2018-07-03T02:39:37.120Z,3.00
2018-07-03T02:40:39.896Z,2.50
2018-07-03T02:41:42.684Z,3.50
2018-07-03T02:42:45.509Z,2.50
2018-07-03T02:43:48.258Z,2.50
2018-07-03T02:44:51.551Z,4.00
2018-07-03T02:45:54.338Z,2.00
2018-07-03T02:46:57.085Z,4.00
2018-07-03T02:48:00.396Z,4.00
2018-07-03T02:49:03.259Z,3.50
2018-07-03T02:50:07.966Z,3.50
2018-07-03T02:51:11.300Z,4.00
2018-07-03T02:52:14.118Z,2.00
2018-07-03T02:53:16.894Z,4.00
2018-07-03T02:54:19.652Z,2.00
2018-07-03T02:55:22.423Z,2.50
2018-07-03T02:56:25.242Z,4.00
2018-07-03T02:57:28.465Z,2.50
2018-07-03T02:58:31.250Z,2.00
2018-07-03T02:59:34.036Z,4.00
2018-07-03T03:00:36.855Z,2.00
2018-07-03T03:01:39.689Z,2.00
2018-07-03T03:02:42.494Z,2.00
2018-07-03T03:03:45.720Z,3.50
2018-07-03T03:04:48.592Z,2.50
2018-07-03T03:05:51.434Z,2.00
2018-07-03T03:06:54.914Z,4.00
2018-07-03T03:07:57.734Z,4.00
2018-07-03T03:09:00.501Z,4.25
2018-07-03T03:10:03.830Z,2.00
2018-07-03T03:11:06.638Z,2.50
2018-07-03T03:12:09.424Z,3.50
2018-07-03T03:13:12.314Z,3.00
2018-07-03T03:14:15.160Z,4.00
2018-07-03T03:15:17.987Z,4.00
2018-07-03T03:16:21.162Z,2.00
2018-07-03T03:17:23.983Z,4.00
2018-07-03T03:18:26.752Z,2.00
2018-07-03T03:19:29.532Z,4.00
2018-07-03T03:20:32.314Z,2.00
2018-07-03T03:21:35.119Z,3.00
2018-07-03T03:22:38.240Z,2.00
2018-07-03T03:23:41.041Z,2.00
2018-07-03T03:24:43.889Z,2.00
2018-07-03T03:25:46.696Z,3.00
2018-07-03T03:26:49.540Z,4.00
2018-07-03T03:27:52.304Z,3.50
2018-07-03T03:28:55.089Z,2.00
2018-07-03T03:29:57.886Z,2.00
2018-07-03T03:31:00.671Z,3.00
2018-07-03T03:32:03.483Z,2.00
2018-07-03T03:33:07.493Z,3.00
2018-07-03T03:34:10.752Z,2.50
2018-07-03T03:35:13.604Z,4.00
2018-07-03T03:36:16.428Z,2.00
2018-07-03T03:37:19.199Z,2.00
2018-07-03T03:38:22.189Z,4.00
2018-07-03T03:39:24.954Z,2.00
2018-07-03T03:40:28.149Z,2.00
2018-07-03T03:41:30.969Z,3.00
2018-07-03T03:42:33.800Z,2.00
2018-07-03T03:43:36.612Z,2.00
2018-07-03T03:44:39.419Z,2.00
2018-07-03T03:45:42.185Z,2.00
2018-07-03T03:46:45.540Z,3.50
2018-07-03T03:47:48.383Z,1.25
2018-07-03T03:48:51.235Z,2.00
2018-07-03T03:49:54.047Z,2.00
2018-07-03T03:50:56.828Z,3.00
2018-07-03T03:51:59.645Z,2.00
2018-07-03T03:53:02.859Z,2.00
2018-07-03T03:54:05.609Z,2.00
2018-07-03T03:55:09.871Z,2.00
2018-07-03T03:56:12.669Z,2.00
2018-07-03T03:57:15.508Z,3.50
2018-07-03T03:58:18.312Z,5.00
2018-07-03T03:59:21.533Z,6.00
2018-07-03T04:00:24.401Z,5.00
2018-07-03T04:01:27.218Z,3.50
2018-07-03T04:02:30.838Z,4.00
2018-07-03T04:03:34.563Z,4.50
2018-07-03T04:04:37.329Z,5.00
2018-07-03T04:05:40.551Z,4.50
2018-07-03T04:06:43.309Z,4.00
2018-07-03T04:07:46.144Z,3.50
2018-07-03T04:08:48.921Z,4.25
2018-07-03T04:09:51.751Z,4.00
2018-07-03T04:10:54.554Z,4.00
2018-07-03T04:11:57.786Z,4.00
2018-07-03T04:13:00.812Z,2.00
2018-07-03T04:14:03.790Z,4.00
2018-07-03T04:15:07.391Z,3.50
2018-07-03T04:16:10.192Z,4.00
2018-07-03T04:17:13.602Z,4.00
2018-07-03T04:18:35.594Z,3.50
2018-07-03T04:19:38.389Z,2.00
2018-07-03T04:20:42.784Z,1.25
2018-07-03T04:21:45.571Z,2.50
2018-07-03T04:22:48.368Z,2.00
2018-07-03T04:23:51.185Z,4.00
2018-07-03T04:24:54.438Z,3.00
2018-07-03T04:25:57.264Z,2.00
2018-07-03T04:27:00.097Z,2.00
2018-07-03T04:28:02.933Z,2.50
2018-07-03T04:29:05.918Z,4.00
2018-07-03T04:30:08.676Z,3.00
2018-07-03T04:31:16.731Z,3.50
2018-07-03T04:32:19.647Z,2.00
2018-07-03T04:33:22.447Z,2.00
2018-07-03T04:34:25.251Z,2.00
2018-07-03T04:35:28.033Z,3.50
2018-07-03T04:36:31.818Z,3.00
2018-07-03T04:37:34.999Z,3.00
2018-07-03T04:38:37.856Z,4.00
2018-07-03T04:39:40.657Z,3.00
2018-07-03T04:40:43.466Z,4.00
2018-07-03T04:41:46.258Z,2.00
2018-07-03T04:42:49.661Z,4.00
2018-07-03T04:43:54.668Z,4.00
2018-07-03T04:44:57.450Z,7.00
2018-07-03T04:46:00.316Z,5.00
2018-07-03T04:47:03.065Z,7.00
2018-07-03T04:48:05.858Z,5.00
2018-07-03T04:49:08.702Z,6.50
2018-07-03T04:50:11.916Z,4.75
2018-07-03T04:51:14.684Z,5.50
2018-07-03T04:52:17.505Z,5.00
2018-07-03T04:53:20.307Z,5.00
2018-07-03T04:54:24.697Z,4.50
2018-07-03T04:56:40.585Z,6.75
2018-07-03T04:57:43.362Z,6.00
2018-07-03T04:58:46.278Z,5.00
2018-07-03T04:59:49.661Z,5.00
2018-07-03T05:00:52.481Z,5.00
2018-07-03T05:01:55.671Z,7.00
2018-07-03T05:02:58.468Z,6.00
2018-07-03T05:04:01.272Z,5.00
2018-07-03T05:05:04.121Z,6.50
2018-07-03T05:06:06.906Z,6.75
2018-07-03T05:07:09.701Z,6.50
2018-07-03T05:08:12.971Z,5.00
2018-07-03T05:09:16.512Z,5.00
2018-07-03T05:10:19.288Z,5.00
2018-07-03T05:11:22.074Z,6.00
2018-07-03T05:12:24.907Z,7.00
2018-07-03T05:13:27.725Z,7.00
2018-07-03T05:14:30.988Z,9.50
2018-07-03T05:15:33.792Z,8.00
2018-07-03T05:16:36.572Z,12.00
2018-07-03T05:17:39.386Z,9.50
2018-07-03T05:18:42.895Z,7.00
2018-07-03T05:19:45.702Z,6.75
2018-07-03T05:20:48.984Z,6.50
2018-07-03T05:21:51.874Z,7.75
2018-07-03T05:22:56.391Z,7.50
2018-07-03T05:23:59.647Z,8.25
2018-07-03T05:25:02.759Z,11.25
2018-07-03T05:26:05.617Z,6.00
2018-07-03T05:27:10.932Z,5.50
2018-07-03T05:28:14.516Z,5.00
2018-07-03T05:29:18.109Z,4.75
2018-07-03T05:30:24.457Z,5.50
2018-07-03T05:31:27.375Z,7.00
2018-07-03T05:32:31.391Z,6.50
2018-07-03T05:33:34.301Z,5.50
2018-07-03T05:34:37.101Z,7.00
2018-07-03T05:35:39.861Z,7.50
2018-07-03T05:36:42.679Z,8.00
2018-07-03T05:37:45.487Z,9.50
2018-07-03T05:38:48.707Z,9.00
2018-07-03T05:39:51.625Z,11.25
2018-07-03T05:40:54.534Z,10.75
2018-07-03T05:41:57.411Z,10.50
2018-07-03T05:43:00.277Z,9.50
2018-07-03T05:44:03.130Z,8.75
2018-07-03T05:45:08.066Z,9.00
2018-07-03T05:46:10.870Z,9.00
2018-07-03T05:47:13.764Z,8.75
2018-07-03T05:48:17.426Z,10.00
2018-07-03T05:49:20.643Z,11.25
2018-07-03T05:50:23.467Z,8.75
2018-07-03T05:51:26.696Z,8.25
2018-07-03T05:52:29.620Z,11.00
2018-07-03T05:53:32.482Z,8.00
2018-07-03T05:54:35.490Z,9.00
2018-07-03T05:55:39.130Z,11.00
2018-07-03T05:56:41.960Z,8.25
2018-07-03T05:57:45.162Z,9.50
2018-07-03T05:58:49.665Z,10.00
2018-07-03T05:59:52.536Z,11.50
2018-07-03T06:00:55.499Z,9.50
2018-07-03T06:01:58.442Z,10.00
2018-07-03T06:03:01.364Z,9.00
2018-07-03T06:04:04.630Z,8.75
2018-07-03T06:05:07.450Z,11.50
2018-07-03T06:06:10.281Z,8.75
2018-07-03T06:07:13.154Z,8.25
2018-07-03T06:08:16.032Z,9.00
2018-07-03T06:09:19.005Z,9.00
2018-07-03T06:10:30.760Z,8.00
2018-07-03T06:11:35.073Z,9.00
2018-07-03T06:12:48.863Z,8.00
2018-07-03T06:13:55.643Z,8.50
2018-07-03T06:14:58.721Z,8.75
2018-07-03T06:16:06.787Z,8.25
2018-07-03T06:17:11.803Z,8.50
2018-07-03T06:18:14.735Z,8.50
2018-07-03T06:19:17.717Z,8.00
2018-07-03T06:20:20.703Z,9.00
2018-07-03T06:21:26.743Z,8.00
2018-07-03T06:22:29.784Z,8.50
2018-07-03T06:23:33.296Z,7.50
2018-07-03T06:24:36.534Z,9.00
2018-07-03T06:25:39.510Z,9.25
2018-07-03T06:26:43.858Z,8.50
2018-07-03T06:27:49.564Z,8.25
2018-07-03T06:28:52.517Z,6.50
2018-07-03T06:29:55.916Z,8.00
2018-07-03T06:30:58.718Z,8.50
2018-07-03T06:33:33.509Z,9.00
2018-07-03T06:34:36.439Z,10.50
2018-07-03T06:35:39.365Z,10.00
2018-07-03T06:36:42.730Z,10.00
2018-07-03T06:37:45.643Z,8.50
2018-07-03T06:38:48.911Z,8.25
2018-07-03T06:39:52.399Z,8.75
2018-07-03T06:40:55.491Z,11.75
2018-07-03T06:41:58.421Z,9.75
2018-07-03T06:43:01.760Z,9.75
2018-07-03T06:44:04.604Z,8.00
2018-07-03T06:45:07.897Z,7.50
2018-07-03T06:46:11.130Z,8.50
2018-07-03T06:47:14.008Z,9.00
2018-07-03T06:48:16.846Z,9.00
2018-07-03T06:49:20.177Z,7.00
2018-07-03T06:50:25.133Z,6.00
2018-07-03T06:51:29.021Z,7.00
2018-07-03T06:52:32.023Z,6.25
2018-07-03T06:53:34.873Z,5.00
2018-07-03T06:54:37.716Z,5.50
2018-07-03T06:55:43.176Z,5.75
2018-07-03T06:56:46.182Z,4.50
2018-07-03T06:57:49.231Z,5.00
2018-07-03T06:58:52.619Z,3.00
2018-07-03T06:59:56.161Z,3.00
2018-07-03T07:00:59.003Z,5.00
2018-07-03T07:02:02.241Z,5.00
2018-07-03T07:03:05.113Z,2.75
2018-07-03T07:04:10.073Z,3.50
2018-07-03T07:05:13.845Z,4.50
2018-07-03T07:06:19.721Z,5.00
2018-07-03T07:07:22.652Z,7.00
2018-07-03T07:08:25.861Z,6.00
2018-07-03T07:09:28.796Z,7.00
2018-07-03T07:10:31.763Z,5.50
2018-07-03T07:11:34.659Z,6.00
2018-07-03T07:13:46.318Z,6.75
2018-07-03T07:14:49.142Z,6.00
2018-07-03T07:15:53.574Z,5.50
2018-07-03T07:16:56.417Z,6.00
2018-07-03T07:18:05.849Z,4.00
2018-07-03T07:19:09.430Z,4.00
2018-07-03T07:20:13.514Z,5.00
2018-07-03T07:21:16.311Z,4.00
2018-07-03T07:22:19.194Z,3.00
2018-07-03T07:23:22.082Z,3.25
2018-07-03T07:24:25.097Z,3.00
2018-07-03T07:25:28.026Z,2.00
2018-07-03T07:26:39.126Z,2.25
2018-07-03T07:27:47.533Z,2.00
2018-07-03T07:28:50.392Z,3.00
2018-07-03T07:29:53.336Z,2.75
2018-07-03T07:30:56.716Z,3.50
2018-07-03T07:32:00.710Z,2.75
2018-07-03T07:33:03.949Z,2.25
2018-07-03T07:34:07.272Z,2.50
2018-07-03T07:35:10.527Z,3.50
2018-07-03T07:36:13.540Z,2.50
2018-07-03T07:37:17.278Z,2.00
2018-07-03T07:38:20.124Z,2.00
2018-07-03T07:39:23.434Z,2.00
2018-07-03T07:40:26.340Z,2.75
2018-07-03T07:41:29.399Z,2.00
2018-07-03T07:42:32.359Z,1.25
2018-07-03T07:43:35.756Z,2.00
2018-07-03T07:44:38.903Z,2.00
2018-07-03T07:45:42.380Z,2.00
2018-07-03T07:46:45.258Z,2.50
2018-07-03T07:47:48.182Z,2.00
2018-07-03T07:48:51.319Z,1.75
2018-07-03T07:49:54.366Z,2.00
2018-07-03T07:50:57.163Z,1.75
2018-07-03T07:52:01.561Z,2.00
2018-07-03T07:53:04.484Z,2.00
2018-07-03T07:54:07.446Z,1.00
2018-07-03T07:55:10.310Z,2.50
2018-07-03T07:56:14.533Z,1.25
2018-07-03T07:57:19.053Z,2.00
2018-07-03T07:58:22.397Z,1.00
2018-07-03T07:59:25.262Z,1.50
2018-07-03T08:00:28.174Z,2.00
2018-07-03T08:01:31.090Z,2.00
2018-07-03T08:02:35.089Z,2.25
2018-07-03T08:03:38.468Z,2.00
2018-07-03T08:04:42.687Z,3.00
2018-07-03T08:05:46.338Z,1.75
2018-07-03T08:06:49.282Z,2.00
2018-07-03T08:07:52.208Z,1.75
2018-07-03T08:08:55.211Z,2.00
2018-07-03T08:09:59.915Z,2.25
2018-07-03T08:11:03.488Z,2.00
2018-07-03T08:12:08.498Z,2.00
2018-07-03T08:13:11.787Z,2.00
2018-07-03T08:14:25.376Z,2.00
2018-07-03T08:15:28.345Z,2.25
2018-07-03T08:16:31.317Z,2.00
2018-07-03T08:17:34.699Z,2.00
2018-07-03T08:18:38.612Z,3.00
2018-07-03T08:19:42.031Z,3.00
2018-07-03T08:20:44.872Z,3.25
2018-07-03T08:21:48.365Z,3.00
2018-07-03T08:22:51.486Z,4.50
2018-07-03T08:23:54.748Z,2.00
2018-07-03T08:24:57.625Z,3.00
2018-07-03T08:26:00.577Z,2.00
2018-07-03T08:27:04.232Z,2.75
2018-07-03T08:28:07.057Z,2.00
2018-07-03T08:29:09.877Z,2.50
2018-07-03T08:30:13.827Z,2.25
2018-07-03T08:31:22.535Z,3.00
2018-07-03T08:32:26.676Z,2.00
2018-07-03T08:33:30.172Z,2.50
2018-07-03T08:34:33.668Z,2.00
2018-07-03T08:35:36.488Z,2.00
2018-07-03T08:36:39.719Z,2.75
2018-07-03T08:37:43.201Z,2.00
2018-07-03T08:38:46.307Z,3.00
2018-07-03T08:39:50.341Z,3.00
2018-07-03T08:40:53.327Z,3.00
2018-07-03T08:41:56.607Z,3.00
2018-07-03T08:42:59.815Z,2.00
2018-07-03T08:44:04.938Z,3.00
2018-07-03T08:45:18.369Z,3.25
2018-07-03T08:46:23.383Z,3.00
2018-07-03T08:47:28.684Z,2.00
2018-07-03T08:48:33.747Z,3.00
2018-07-03T08:49:38.439Z,2.50
2018-07-03T08:50:41.340Z,3.00
2018-07-03T08:51:44.295Z,3.00
2018-07-03T08:52:48.472Z,2.50
2018-07-03T08:53:52.993Z,3.25
2018-07-03T08:54:56.664Z,2.25
2018-07-03T08:55:59.704Z,2.25
2018-07-03T08:57:02.643Z,3.00
2018-07-03T08:58:05.745Z,3.00
2018-07-03T09:00:22.471Z,3.00
2018-07-03T09:01:25.654Z,3.00
2018-07-03T09:02:28.783Z,2.00
2018-07-03T09:03:33.467Z,2.50
2018-07-03T09:04:36.425Z,3.25
2018-07-03T09:06:57.154Z,2.25
2018-07-03T09:08:02.275Z,2.50
2018-07-03T09:10:25.834Z,2.50
2018-07-03T09:11:51.451Z,3.00
2018-07-03T09:12:57.784Z,3.00
2018-07-03T09:14:03.296Z,3.00
2018-07-03T09:15:08.699Z,2.00
2018-07-03T09:16:11.693Z,2.50
2018-07-03T09:17:21.748Z,2.50
2018-07-03T09:18:24.657Z,3.00
2018-07-03T09:19:28.657Z,3.00
2018-07-03T09:20:33.355Z,3.00
2018-07-03T09:21:46.832Z,3.50
2018-07-03T09:22:50.165Z,3.00
2018-07-03T09:23:53.135Z,3.50
2018-07-03T09:25:04.306Z,2.75
2018-07-03T09:26:08.156Z,4.00
2018-07-03T09:27:11.560Z,3.00
2018-07-03T09:28:15.132Z,2.25
2018-07-03T09:29:18.233Z,3.00
2018-07-03T09:30:21.544Z,3.00
2018-07-03T09:31:25.407Z,3.00
2018-07-03T09:32:28.690Z,3.50
2018-07-03T09:33:32.422Z,3.00
2018-07-03T09:34:35.365Z,3.00
2018-07-03T09:36:55.874Z,2.00
2018-07-03T09:37:59.724Z,3.00
2018-07-03T09:39:03.820Z,3.00
2018-07-03T09:41:26.553Z,3.00
2018-07-03T09:42:34.037Z,3.00
2018-07-03T09:43:49.657Z,4.00
2018-07-03T09:46:08.197Z,4.00
2018-07-03T09:47:13.744Z,3.00
2018-07-03T09:48:17.688Z,3.25
2018-07-03T09:49:21.596Z,3.50
2018-07-03T09:50:24.571Z,3.00
2018-07-03T09:51:28.017Z,3.00
2018-07-03T09:52:33.547Z,3.25
2018-07-03T09:53:36.736Z,3.00
2018-07-03T09:54:41.275Z,4.00
2018-07-03T09:55:44.603Z,3.00
2018-07-03T09:56:47.758Z,3.25
2018-07-03T09:57:51.582Z,3.00
2018-07-03T10:00:05.985Z,3.25
2018-07-03T10:01:14.176Z,3.00
2018-07-03T10:02:19.349Z,3.00
2018-07-03T10:03:23.227Z,4.00
2018-07-03T10:04:26.255Z,3.00
2018-07-03T10:05:29.781Z,3.00
2018-07-03T10:06:32.747Z,3.00
2018-07-03T10:07:37.644Z,3.00
2018-07-03T10:08:40.653Z,3.00
2018-07-03T10:09:43.733Z,2.00
2018-07-03T10:10:46.894Z,3.25
2018-07-03T10:11:58.978Z,4.00
2018-07-03T10:15:32.290Z,3.00
2018-07-03T10:17:49.362Z,3.75
2018-07-03T10:18:55.856Z,3.00
2018-07-03T10:19:59.956Z,4.00
2018-07-03T10:21:05.126Z,3.00
2018-07-03T10:22:10.327Z,3.00
2018-07-03T10:23:15.132Z,3.00
2018-07-03T10:24:18.944Z,4.00
2018-07-03T10:25:25.737Z,3.00
2018-07-03T10:26:29.687Z,2.75
2018-07-03T10:27:33.884Z,2.00
2018-07-03T10:31:04.261Z,3.25
2018-07-03T10:34:35.404Z,3.00
2018-07-03T10:35:40.230Z,3.00
2018-07-03T10:36:44.735Z,4.00
2018-07-03T10:39:06.197Z,2.00
2018-07-03T10:40:13.739Z,3.00
2018-07-03T10:41:17.547Z,3.75
2018-07-03T10:42:21.341Z,3.50
2018-07-03T10:43:26.300Z,4.00
2018-07-03T10:44:31.748Z,3.00
2018-07-03T10:46:58.697Z,3.00
2018-07-03T10:48:24.260Z,4.00
2018-07-03T10:49:27.523Z,3.00
2018-07-03T10:50:32.546Z,3.75
2018-07-03T10:51:36.859Z,3.00
2018-07-03T10:53:55.731Z,3.00
2018-07-03T10:55:01.130Z,3.00
2018-07-03T10:56:10.526Z,3.50
2018-07-03T10:58:25.408Z,3.25
2018-07-03T10:59:29.552Z,4.50
2018-07-03T11:00:33.335Z,3.25
2018-07-03T11:01:38.557Z,3.00
2018-07-03T11:02:45.859Z,3.00
2018-07-03T11:03:51.269Z,3.00
2018-07-03T11:04:54.256Z,4.00
2018-07-03T11:05:58.455Z,3.00
2018-07-03T11:07:05.323Z,3.00
2018-07-03T11:09:26.609Z,3.00
2018-07-03T11:10:30.862Z,3.75
2018-07-03T11:11:36.683Z,3.75
2018-07-03T11:12:47.632Z,3.75
2018-07-03T11:13:55.619Z,4.00
2018-07-03T11:15:05.475Z,4.00
2018-07-03T11:16:10.251Z,3.25
2018-07-03T11:17:14.385Z,4.25
2018-07-03T11:20:44.697Z,3.50
2018-07-03T11:25:32.224Z,3.00
2018-07-03T11:26:36.157Z,3.50
2018-07-03T11:27:39.958Z,3.00
2018-07-03T11:28:49.088Z,4.00
2018-07-03T11:29:52.428Z,3.75
2018-07-03T11:30:58.766Z,4.00
2018-07-03T11:34:30.987Z,3.00
2018-07-03T11:35:36.819Z,3.50
2018-07-03T11:37:50.393Z,3.00
2018-07-03T11:40:07.488Z,4.50
2018-07-03T11:41:10.972Z,3.00
2018-07-03T11:42:15.191Z,3.00
2018-07-03T11:43:18.543Z,4.00
2018-07-03T11:44:23.028Z,3.75
2018-07-03T11:45:30.109Z,3.50
2018-07-03T11:46:34.543Z,4.00
2018-07-03T11:50:21.923Z,3.00
2018-07-03T11:51:33.420Z,3.00
2018-07-03T11:52:37.697Z,3.50
2018-07-03T11:53:44.745Z,4.00
2018-07-03T11:54:48.321Z,3.50
2018-07-03T11:55:55.106Z,2.00
2018-07-03T11:56:59.831Z,3.00
2018-07-03T11:58:03.419Z,2.75
2018-07-03T11:59:08.613Z,3.25
2018-07-03T12:00:16.092Z,3.25
2018-07-03T12:01:19.808Z,4.00
2018-07-03T12:02:22.958Z,4.00
2018-07-03T12:04:33.803Z,2.25
2018-07-03T12:05:38.313Z,3.00
2018-07-03T12:06:41.361Z,3.75
2018-07-03T12:07:45.549Z,3.00
2018-07-03T12:08:50.004Z,3.75
2018-07-03T12:09:54.112Z,4.00
2018-07-03T12:10:59.415Z,4.00
2018-07-03T12:12:02.935Z,3.00
2018-07-03T12:13:11.576Z,5.75
2018-07-03T12:14:21.985Z,4.00
2018-07-03T12:15:27.471Z,3.75
2018-07-03T12:16:32.704Z,3.00
2018-07-03T12:17:36.314Z,3.50
2018-07-03T12:18:44.098Z,3.00
2018-07-03T12:19:52.491Z,3.00
2018-07-03T12:20:55.896Z,3.75
2018-07-03T12:23:12.253Z,3.25
2018-07-03T12:24:16.213Z,3.00
2018-07-03T12:25:19.435Z,4.00
2018-07-03T12:26:22.791Z,4.00
2018-07-03T12:27:30.761Z,4.00
2018-07-03T12:28:38.806Z,3.75
2018-07-03T12:29:44.582Z,3.00
2018-07-03T12:30:50.275Z,3.00
2018-07-03T12:31:58.582Z,4.00
2018-07-03T12:33:05.018Z,3.75
2018-07-03T12:35:19.413Z,3.75
2018-07-03T12:37:38.638Z,2.75
2018-07-03T12:39:54.675Z,4.00
2018-07-03T12:42:24.187Z,4.50
2018-07-03T12:43:27.918Z,4.00
2018-07-03T12:44:34.124Z,4.00
2018-07-03T12:45:45.613Z,4.00
2018-07-03T12:46:49.609Z,3.50
2018-07-03T12:47:54.334Z,4.25
2018-07-03T12:49:32.347Z,3.25
2018-07-03T12:50:47.484Z,3.00
2018-07-03T12:53:05.385Z,4.00
2018-07-03T12:54:08.955Z,3.50
2018-07-03T12:55:12.191Z,3.75
2018-07-03T12:56:17.197Z,3.25
2018-07-03T12:57:22.239Z,3.00
2018-07-03T12:58:26.861Z,4.00
2018-07-03T12:59:29.749Z,4.50
2018-07-03T13:00:33.522Z,3.50
2018-07-03T13:01:37.462Z,3.75
2018-07-03T13:02:42.965Z,3.50
2018-07-03T13:03:45.867Z,4.25
2018-07-03T13:04:51.245Z,4.00
2018-07-03T13:05:55.639Z,4.25
2018-07-03T13:06:59.605Z,4.00
2018-07-03T13:08:04.140Z,4.00
2018-07-03T13:09:10.256Z,4.00
2018-07-03T13:10:21.517Z,3.50
2018-07-03T13:11:27.771Z,4.75
2018-07-03T13:12:31.657Z,4.00
2018-07-03T13:13:37.323Z,4.00
2018-07-03T13:14:41.239Z,4.00
2018-07-03T13:15:50.346Z,3.50
2018-07-03T13:16:56.219Z,4.00
2018-07-03T13:18:10.298Z,4.00
2018-07-03T13:19:13.172Z,7.25
2018-07-03T13:20:25.959Z,5.50
2018-07-03T13:21:28.882Z,5.75
2018-07-03T13:22:32.180Z,5.00
2018-07-03T13:23:36.117Z,4.25
2018-07-03T13:24:39.609Z,4.00
2018-07-03T13:25:42.464Z,4.00
2018-07-03T13:26:45.273Z,4.00
2018-07-03T13:27:48.176Z,4.00
2018-07-03T13:28:52.392Z,4.00
2018-07-03T13:29:55.337Z,3.75
2018-07-03T13:35:58.204Z,4.00
2018-07-03T13:37:01.082Z,4.00
2018-07-03T13:38:03.902Z,3.00
2018-07-03T13:40:19.467Z,4.00
2018-07-03T13:41:24.105Z,4.50
2018-07-03T13:42:31.138Z,4.50
2018-07-03T13:43:42.054Z,3.75
2018-07-03T13:44:46.030Z,4.25
2018-07-03T13:45:50.279Z,6.50
2018-07-03T13:48:11.955Z,4.00
2018-07-03T13:49:14.896Z,4.00
2018-07-03T13:50:19.026Z,4.00
2018-07-03T13:51:23.573Z,3.75
2018-07-03T13:55:01.841Z,4.25
2018-07-03T13:56:08.743Z,4.00
2018-07-03T14:01:06.006Z,3.00
2018-07-03T14:02:12.170Z,3.75
2018-07-03T14:03:20.707Z,3.75
2018-07-03T14:04:30.467Z,3.00
2018-07-03T14:05:41.364Z,4.75
2018-07-03T14:11:43.554Z,3.00
2018-07-03T14:14:02.465Z,3.75
2018-07-03T14:15:07.707Z,3.50
2018-07-03T14:16:11.135Z,3.00
2018-07-03T14:18:34.276Z,3.00
2018-07-03T14:19:52.185Z,4.00
2018-07-03T14:21:03.130Z,3.00
2018-07-03T14:22:08.211Z,4.50
2018-07-03T14:23:14.083Z,3.50
2018-07-03T21:45:17.920Z,8.75
2018-07-03T21:46:21.707Z,7.00
2018-07-03T21:47:29.580Z,8.50
2018-07-03T21:48:34.221Z,8.00
2018-07-03T21:49:39.593Z,8.75
2018-07-03T21:50:43.102Z,8.00
2018-07-03T21:51:47.290Z,7.50
2018-07-03T21:52:51.573Z,8.00
2018-07-03T21:53:54.896Z,8.00
2018-07-03T21:54:59.158Z,8.25
2018-07-03T21:56:11.002Z,8.00
2018-07-03T21:57:13.880Z,8.00
2018-07-03T21:58:21.596Z,7.75
2018-07-03T21:59:25.795Z,8.00
2018-07-03T22:00:28.848Z,7.75
2018-07-03T22:01:32.889Z,8.50
2018-07-03T22:02:36.218Z,8.00
2018-07-03T22:03:41.379Z,8.50
2018-07-03T22:04:44.563Z,8.75
2018-07-03T22:05:47.950Z,8.50
2018-07-03T22:06:51.325Z,8.00
2018-07-03T22:07:54.255Z,8.75
2018-07-03T22:08:58.179Z,9.50
2018-07-03T22:10:11.590Z,10.25
2018-07-03T22:11:18.376Z,8.00
2018-07-03T22:12:22.416Z,10.00
2018-07-03T22:13:26.845Z,9.00
2018-07-03T22:16:10.288Z,8.50
2018-07-03T22:17:13.557Z,8.75
2018-07-03T22:18:18.993Z,9.00
2018-07-03T22:19:27.942Z,8.25
2018-07-03T22:20:35.714Z,9.75
2018-07-03T22:21:42.823Z,10.00
2018-07-03T22:22:53.428Z,8.75
2018-07-03T22:23:59.357Z,8.50
2018-07-03T22:25:03.467Z,8.00
2018-07-03T22:27:24.840Z,9.00
2018-07-03T22:28:33.353Z,9.50
2018-07-03T22:29:36.295Z,9.00
2018-07-03T22:30:39.129Z,10.00
2018-07-03T22:31:42.011Z,10.25
2018-07-03T22:32:45.782Z,11.25
2018-07-03T22:33:53.241Z,12.00
2018-07-03T22:34:56.112Z,10.00
2018-07-03T22:35:59.354Z,11.00
2018-07-03T22:37:09.741Z,12.50
2018-07-03T22:38:12.616Z,12.50
2018-07-03T22:39:15.527Z,12.25
2018-07-03T22:40:19.337Z,9.50
2018-07-03T22:41:22.375Z,12.75
2018-07-03T22:42:28.215Z,12.00
2018-07-03T22:43:31.397Z,12.75
2018-07-03T22:44:34.901Z,13.00
2018-07-03T22:45:37.731Z,12.25
2018-07-03T22:46:41.239Z,12.00
2018-07-03T22:47:44.636Z,13.75
2018-07-03T22:48:47.559Z,11.00